Time;durP1;ratioP1;P1;durP2;ratioP2;P2;SDS_P1;SDS_P2;PMS_P1;PMS_P2;Temp;Humidity;BMP_temperature;BMP_pressure;BME280_temperature;BME280_humidity;BME280_pressure;Samples;Min_cycle;Max_cycle;Signal;HPM_P1;HPM_P2
2023/03/11 00:01:10;;;;;;;25.48;11.68;;;;;;;;;;4987028;28;20140;-45
2023/03/11 00:03:39;;;;;;;23.53;11.23;;;;;;;;;;5002276;28;20087;-46
2023/03/11 00:06:07;;;;;;;19.63;9.73;;;;;;;;;;4982702;28;20749;-45
2023/03/11 00:08:35;;;;;;;21.85;9.02;;;;;;;;;;4987520;28;20646;-46
2023/03/11 00:11:02;;;;;;;19.85;8.60;;;;;;;;;;4988865;28;20830;-45
2023/03/11 00:13:30;;;;;;;20.33;9.40;;;;;;;;;;4991227;28;20098;-45
2023/03/11 00:15:58;;;;;;;18.73;8.87;;;;;;;;;;4995594;28;20059;-44
2023/03/11 00:18:28;;;;;;;18.60;8.82;;;;;;;;;;4990219;28;20152;-46
2023/03/11 00:20:59;;;;;;;21.50;8.68;;;;;;;;;;4983055;28;20195;-45
2023/03/11 00:23:33;;;;;;;19.15;7.40;;;;;;;;;;4377093;28;10000582;-46
2023/03/11 00:26:01;;;;;;;22.15;7.93;;;;;;;;;;4989169;28;20249;-45
2023/03/11 00:28:29;;;;;;;16.37;7.57;;;;;;;;;;4983671;28;20348;-46
2023/03/11 00:31:00;;;;;;;22.10;9.70;;;;;;;;;;4983521;28;20313;-44
2023/03/11 00:33:28;;;;;;;22.08;10.43;;;;;;;;;;4997215;28;20395;-46
2023/03/11 00:35:56;;;;;;;26.38;10.90;;;;;;;;;;4993942;28;20042;-45
2023/03/11 00:38:25;;;;;;;28.33;12.23;;;;;;;;;;4987542;28;20647;-46
2023/03/11 00:40:52;;;;;;;24.70;10.37;;;;;;;;;;4981981;28;20397;-48
2023/03/11 00:43:20;;;;;;;24.10;11.18;;;;;;;;;;4979977;28;20477;-46
2023/03/11 00:45:47;;;;;;;23.73;10.75;;;;;;;;;;4985929;28;20043;-46
2023/03/11 00:48:16;;;;;;;30.88;12.68;;;;;;;;;;4989938;28;20045;-46
2023/03/11 00:50:45;;;;;;;28.60;12.32;;;;;;;;;;5000647;28;20041;-46
2023/03/11 00:53:17;;;;;;;30.20;12.97;;;;;;;;;;5002392;28;20053;-45
2023/03/11 00:55:46;;;;;;;29.40;12.85;;;;;;;;;;4988976;28;20440;-46
2023/03/11 00:58:13;;;;;;;26.23;11.88;;;;;;;;;;4988136;28;20041;-47
2023/03/11 01:00:41;;;;;;;25.88;12.20;;;;;;;;;;5000524;28;20037;-48
2023/03/11 01:03:09;;;;;;;27.15;11.55;;;;;;;;;;4986619;28;20103;-45
2023/03/11 01:05:36;;;;;;;24.67;10.50;;;;;;;;;;4992372;28;20037;-46
2023/03/11 01:08:04;;;;;;;20.75;9.38;;;;;;;;;;4993413;28;20045;-45
2023/03/11 01:10:32;;;;;;;21.42;10.15;;;;;;;;;;5003365;28;20411;-48
2023/03/11 01:13:01;;;;;;;22.10;10.52;;;;;;;;;;4989526;28;20038;-47
2023/03/11 01:15:35;;;;;;;26.67;11.38;;;;;;;;;;4995208;28;20037;-45
2023/03/11 01:18:04;;;;;;;27.07;10.20;;;;;;;;;;4999000;28;20053;-45
2023/03/11 01:20:33;;;;;;;23.45;10.93;;;;;;;;;;4987564;28;20053;-47
2023/03/11 01:23:01;;;;;;;24.27;10.52;;;;;;;;;;4993533;28;20033;-45
2023/03/11 01:25:29;;;;;;;22.85;9.48;;;;;;;;;;4982435;28;20120;-46
2023/03/11 01:27:57;;;;;;;25.02;9.48;;;;;;;;;;4988243;28;20064;-45
2023/03/11 01:30:26;;;;;;;20.53;9.70;;;;;;;;;;4995018;28;20383;-45
2023/03/11 01:32:55;;;;;;;20.88;10.25;;;;;;;;;;4982167;28;20564;-45
2023/03/11 01:35:23;;;;;;;26.77;10.73;;;;;;;;;;5000610;28;20041;-45
2023/03/11 01:37:51;;;;;;;27.73;11.40;;;;;;;;;;4970810;28;20029;-45
2023/03/11 01:40:20;;;;;;;25.40;11.25;;;;;;;;;;4993634;28;20437;-45
2023/03/11 01:42:47;;;;;;;25.90;12.33;;;;;;;;;;4983870;28;20543;-46
2023/03/11 01:45:29;;;;;;;24.48;11.13;;;;;;;;;;5005710;28;20049;-45
2023/03/11 01:47:59;;;;;;;27.83;12.07;;;;;;;;;;4985425;28;20034;-45
2023/03/11 01:50:31;;;;;;;26.63;12.20;;;;;;;;;;4993374;28;20623;-45
2023/03/11 01:52:59;;;;;;;27.15;11.20;;;;;;;;;;5011759;28;20054;-45
2023/03/11 01:55:27;;;;;;;23.00;11.87;;;;;;;;;;4988028;28;20479;-44
2023/03/11 01:57:55;;;;;;;26.20;11.55;;;;;;;;;;5005155;28;20086;-48
2023/03/11 02:00:23;;;;;;;26.35;12.02;;;;;;;;;;4977261;28;20130;-46
2023/03/11 02:02:54;;;;;;;26.02;10.23;;;;;;;;;;4996691;28;20094;-45
2023/03/11 02:05:25;;;;;;;23.05;10.65;;;;;;;;;;4993118;28;20038;-47
2023/03/11 02:07:53;;;;;;;21.07;9.90;;;;;;;;;;4986747;28;20045;-46
2023/03/11 02:10:21;;;;;;;21.40;9.75;;;;;;;;;;4988451;28;20434;-47
2023/03/11 02:12:50;;;;;;;21.42;9.05;;;;;;;;;;5001457;28;20771;-48
2023/03/11 02:15:18;;;;;;;21.98;9.70;;;;;;;;;;5004839;28;20116;-45
2023/03/11 02:17:46;;;;;;;24.83;9.75;;;;;;;;;;4988813;28;20087;-47
2023/03/11 02:20:20;;;;;;;20.47;9.47;;;;;;;;;;5000626;28;20073;-45
2023/03/11 02:22:48;;;;;;;23.83;10.55;;;;;;;;;;4991358;28;20548;-46
2023/03/11 02:25:21;;;;;;;24.90;9.80;;;;;;;;;;4996854;28;20533;-45
2023/03/11 02:27:57;;;;;;;23.30;10.18;;;;;;;;;;4979537;28;20126;-45
2023/03/11 02:30:26;;;;;;;21.05;9.52;;;;;;;;;;4994112;28;20038;-45
2023/03/11 02:32:54;;;;;;;20.27;9.70;;;;;;;;;;5004649;28;20065;-45
2023/03/11 02:35:22;;;;;;;21.10;9.50;;;;;;;;;;4994777;28;20096;-47
2023/03/11 02:37:51;;;;;;;18.35;8.80;;;;;;;;;;4990443;28;20077;-46
2023/03/11 02:40:34;;;;;;;19.75;9.38;;;;;;;;;;4993065;28;20091;-44
2023/03/11 02:43:05;;;;;;;21.27;8.95;;;;;;;;;;4978782;28;20484;-45
2023/03/11 02:45:33;;;;;;;24.90;9.93;;;;;;;;;;4969907;28;20045;-48
2023/03/11 02:48:03;;;;;;;22.77;9.70;;;;;;;;;;5003252;28;20080;-46
2023/03/11 02:50:33;;;;;;;20.30;9.43;;;;;;;;;;4983882;28;20251;-47
2023/03/11 02:53:00;;;;;;;24.20;10.15;;;;;;;;;;5001772;28;20048;-45
2023/03/11 02:55:28;;;;;;;23.50;10.13;;;;;;;;;;4962911;28;20095;-46
2023/03/11 02:57:56;;;;;;;22.60;9.73;;;;;;;;;;5003290;28;20068;-44
2023/03/11 03:00:28;;;;;;;24.52;9.02;;;;;;;;;;4991411;28;20072;-46
2023/03/11 03:02:58;;;;;;;20.70;8.52;;;;;;;;;;5004376;28;20111;-48
2023/03/11 03:05:26;;;;;;;20.63;8.10;;;;;;;;;;5005534;28;20117;-46
2023/03/11 03:07:58;;;;;;;19.45;8.35;;;;;;;;;;5000637;28;20042;-45
2023/03/11 03:10:26;;;;;;;20.87;8.77;;;;;;;;;;4997058;28;20497;-46
2023/03/11 03:12:54;;;;;;;18.25;8.60;;;;;;;;;;4988607;28;20041;-46
2023/03/11 03:15:22;;;;;;;22.98;9.43;;;;;;;;;;4988200;28;20072;-45
2023/03/11 03:17:51;;;;;;;20.63;8.93;;;;;;;;;;4968626;28;20581;-45
2023/03/11 03:20:21;;;;;;;22.73;8.38;;;;;;;;;;4987622;28;20483;-45
2023/03/11 03:22:50;;;;;;;21.63;8.37;;;;;;;;;;4996010;28;20628;-46
2023/03/11 03:25:18;;;;;;;20.55;8.13;;;;;;;;;;4994867;28;20533;-44
2023/03/11 03:27:45;;;;;;;20.63;8.45;;;;;;;;;;4987060;28;20124;-45
2023/03/11 03:30:13;;;;;;;18.45;8.18;;;;;;;;;;5015698;28;20118;-44
2023/03/11 03:32:41;;;;;;;18.77;8.13;;;;;;;;;;4987504;28;20029;-47
2023/03/11 03:35:15;;;;;;;18.73;7.67;;;;;;;;;;4998878;28;20046;-46
2023/03/11 03:37:43;;;;;;;19.42;7.85;;;;;;;;;;4999983;28;20041;-44
2023/03/11 03:40:11;;;;;;;13.70;6.60;;;;;;;;;;4985783;28;20037;-46
2023/03/11 03:42:39;;;;;;;14.50;6.60;;;;;;;;;;5004755;28;20114;-45
2023/03/11 03:45:08;;;;;;;16.58;6.03;;;;;;;;;;4984119;28;20064;-47
2023/03/11 03:47:36;;;;;;;18.70;6.70;;;;;;;;;;5008318;28;20129;-45
2023/03/11 03:50:04;;;;;;;17.00;6.15;;;;;;;;;;4979826;28;20038;-45
2023/03/11 03:52:34;;;;;;;13.70;5.85;;;;;;;;;;4991503;28;21093;-45
2023/03/11 03:55:02;;;;;;;13.48;5.53;;;;;;;;;;5004341;28;20123;-45
2023/03/11 03:57:29;;;;;;;13.40;5.30;;;;;;;;;;4983666;28;20522;-47
2023/03/11 04:00:01;;;;;;;15.10;6.20;;;;;;;;;;5006987;28;20099;-45
2023/03/11 04:02:28;;;;;;;16.40;5.13;;;;;;;;;;4992363;28;20112;-45
2023/03/11 04:04:56;;;;;;;13.30;5.55;;;;;;;;;;4993323;28;20072;-45
2023/03/11 04:07:24;;;;;;;10.77;4.95;;;;;;;;;;4992930;28;20394;-46
2023/03/11 04:09:53;;;;;;;14.23;4.93;;;;;;;;;;4986555;28;22029;-45
2023/03/11 04:12:21;;;;;;;16.03;4.27;;;;;;;;;;4999487;28;20041;-45
2023/03/11 04:14:48;;;;;;;13.07;4.53;;;;;;;;;;4986356;28;20837;-45
2023/03/11 04:17:20;;;;;;;12.13;4.55;;;;;;;;;;4995001;28;20045;-44
2023/03/11 04:19:48;;;;;;;16.00;4.40;;;;;;;;;;4992262;28;20037;-46
2023/03/11 04:22:15;;;;;;;14.30;4.68;;;;;;;;;;4997022;28;20038;-46
2023/03/11 04:24:43;;;;;;;13.07;4.40;;;;;;;;;;4987386;28;20043;-46
2023/03/11 04:27:12;;;;;;;10.23;4.38;;;;;;;;;;5005238;28;20132;-44
2023/03/11 04:29:40;;;;;;;11.90;4.18;;;;;;;;;;4991767;28;20069;-46
2023/03/11 04:32:07;;;;;;;12.38;4.85;;;;;;;;;;5000462;28;20033;-45
2023/03/11 04:34:35;;;;;;;14.43;4.05;;;;;;;;;;4988504;28;20513;-45
2023/03/11 04:37:03;;;;;;;13.47;4.30;;;;;;;;;;4962216;28;20067;-45
2023/03/11 04:39:30;;;;;;;11.90;4.22;;;;;;;;;;4995731;28;20045;-48
2023/03/11 04:41:58;;;;;;;14.00;4.80;;;;;;;;;;4982598;28;20523;-46
2023/03/11 04:44:31;;;;;;;11.63;4.32;;;;;;;;;;4995931;28;20041;-46
2023/03/11 04:46:59;;;;;;;14.88;3.88;;;;;;;;;;4991460;28;20041;-46
2023/03/11 04:49:26;;;;;;;10.67;4.40;;;;;;;;;;4992149;28;20042;-47
2023/03/11 04:51:54;;;;;;;12.27;3.67;;;;;;;;;;5002315;28;20052;-47
2023/03/11 04:54:22;;;;;;;9.63;3.42;;;;;;;;;;4977187;28;20047;-47
2023/03/11 04:56:49;;;;;;;13.13;3.90;;;;;;;;;;5005470;28;20087;-46
2023/03/11 04:59:17;;;;;;;10.63;3.85;;;;;;;;;;4955027;28;20061;-44
2023/03/11 05:01:46;;;;;;;10.47;2.87;;;;;;;;;;4993023;28;20124;-45
2023/03/11 05:04:13;;;;;;;8.23;3.00;;;;;;;;;;5003177;28;20038;-45
2023/03/11 05:06:41;;;;;;;11.10;3.15;;;;;;;;;;4993357;28;20029;-44
2023/03/11 05:09:09;;;;;;;12.40;2.92;;;;;;;;;;4987807;28;20124;-45
2023/03/11 05:11:36;;;;;;;12.15;3.40;;;;;;;;;;5010281;28;20577;-45
2023/03/11 05:14:04;;;;;;;10.33;3.20;;;;;;;;;;4992712;28;20137;-46
2023/03/11 05:16:32;;;;;;;9.32;3.08;;;;;;;;;;4995578;28;20041;-47
2023/03/11 05:19:29;;;;;;;11.10;3.38;;;;;;;;;;5000245;28;20041;-45
2023/03/11 05:21:49;;;;;;;9.85;2.80;;;;;;;;;;4975317;28;20103;-45
2023/03/11 05:24:16;;;;;;;9.23;3.67;;;;;;;;;;4956105;28;20159;-47
2023/03/11 05:26:44;;;;;;;11.23;3.40;;;;;;;;;;4994394;28;20045;-47
2023/03/11 05:29:15;;;;;;;10.48;3.28;;;;;;;;;;4993457;28;20530;-44
2023/03/11 05:31:42;;;;;;;11.23;3.15;;;;;;;;;;4986280;28;20073;-46
2023/03/11 05:34:11;;;;;;;11.82;3.60;;;;;;;;;;4987167;28;20037;-45
2023/03/11 05:36:39;;;;;;;9.65;3.42;;;;;;;;;;4999367;28;20042;-46
2023/03/11 05:39:06;;;;;;;10.87;3.57;;;;;;;;;;4997892;28;20125;-46
2023/03/11 05:41:35;;;;;;;9.98;3.45;;;;;;;;;;4990852;28;20507;-46
2023/03/11 05:44:03;;;;;;;9.38;3.08;;;;;;;;;;5003233;28;20152;-46
2023/03/11 05:46:31;;;;;;;10.77;3.42;;;;;;;;;;5001441;28;20038;-44
2023/03/11 05:48:59;;;;;;;8.60;3.25;;;;;;;;;;4989952;28;20041;-45
2023/03/11 05:51:28;;;;;;;9.17;3.40;;;;;;;;;;5008780;28;20377;-46
2023/03/11 05:53:56;;;;;;;9.90;3.50;;;;;;;;;;4994317;28;20084;-45
2023/03/11 05:56:23;;;;;;;10.73;3.70;;;;;;;;;;4987941;28;20479;-46
2023/03/11 05:58:51;;;;;;;10.82;3.17;;;;;;;;;;4987970;28;20553;-44
2023/03/11 06:01:19;;;;;;;12.98;3.05;;;;;;;;;;4989884;28;20426;-46
2023/03/11 06:03:47;;;;;;;10.00;3.20;;;;;;;;;;4993111;28;20095;-45
2023/03/11 06:06:16;;;;;;;9.02;2.70;;;;;;;;;;4991771;28;20045;-47
2023/03/11 06:08:48;;;;;;;11.75;2.70;;;;;;;;;;4992902;28;20045;-47
2023/03/11 06:11:16;;;;;;;11.25;2.33;;;;;;;;;;4997927;28;20053;-45
2023/03/11 06:13:44;;;;;;;10.18;2.55;;;;;;;;;;4991273;28;20637;-47
2023/03/11 06:16:12;;;;;;;9.93;3.00;;;;;;;;;;5003408;28;20034;-46
2023/03/11 06:18:39;;;;;;;11.48;3.05;;;;;;;;;;4995875;28;20054;-45
2023/03/11 06:21:08;;;;;;;12.57;2.67;;;;;;;;;;4996907;28;20067;-44
2023/03/11 06:23:35;;;;;;;8.80;2.42;;;;;;;;;;4990512;28;20803;-48
2023/03/11 06:26:05;;;;;;;9.63;3.17;;;;;;;;;;5010614;28;20136;-44
2023/03/11 06:28:33;;;;;;;7.90;2.47;;;;;;;;;;4976094;28;20376;-44
2023/03/11 06:31:15;;;;;;;10.48;2.17;;;;;;;;;;5008602;28;20041;-45
2023/03/11 06:33:43;;;;;;;8.85;1.90;;;;;;;;;;4999401;28;20037;-45
2023/03/11 06:36:12;;;;;;;7.82;2.47;;;;;;;;;;4993578;28;20703;-53
2023/03/11 06:38:40;;;;;;;8.30;2.15;;;;;;;;;;5008425;28;20041;-45
2023/03/11 06:41:10;;;;;;;9.07;2.97;;;;;;;;;;5001149;28;20464;-45
2023/03/11 06:43:37;;;;;;;12.77;1.98;;;;;;;;;;5000230;28;20563;-46
2023/03/11 06:46:08;;;;;;;9.35;2.70;;;;;;;;;;5004893;28;20120;-46
2023/03/11 06:48:36;;;;;;;7.53;2.10;;;;;;;;;;5007258;28;20041;-46
2023/03/11 06:51:04;;;;;;;7.93;2.00;;;;;;;;;;4990973;28;20052;-46
2023/03/11 06:53:32;;;;;;;7.30;2.00;;;;;;;;;;4994674;28;20070;-45
2023/03/11 06:56:00;;;;;;;10.40;2.47;;;;;;;;;;4975158;28;20719;-46
2023/03/11 06:58:29;;;;;;;8.80;2.20;;;;;;;;;;4992275;28;20069;-47
2023/03/11 07:01:00;;;;;;;10.55;1.83;;;;;;;;;;4984363;28;21951;-45
2023/03/11 07:03:28;;;;;;;9.13;2.03;;;;;;;;;;4994238;28;20038;-46
2023/03/11 07:05:55;;;;;;;8.63;1.87;;;;;;;;;;4985348;28;20120;-46
2023/03/11 07:08:23;;;;;;;8.23;2.08;;;;;;;;;;5007510;28;20087;-46
2023/03/11 07:10:59;;;;;;;8.60;2.08;;;;;;;;;;4986725;28;20469;-45
2023/03/11 07:13:27;;;;;;;7.72;1.50;;;;;;;;;;4999014;28;20477;-45
2023/03/11 07:16:03;;;;;;;6.63;1.50;;;;;;;;;;4984975;28;20038;-46
2023/03/11 07:18:33;;;;;;;12.83;2.30;;;;;;;;;;4995009;28;20558;-45
2023/03/11 07:21:01;;;;;;;9.45;2.13;;;;;;;;;;4974988;28;20398;-44
2023/03/11 07:23:28;;;;;;;13.95;1.80;;;;;;;;;;4990480;28;20121;-49
2023/03/11 07:25:56;;;;;;;10.93;1.98;;;;;;;;;;4997414;28;20174;-45
2023/03/11 07:28:24;;;;;;;9.50;2.10;;;;;;;;;;4985924;28;20120;-45
2023/03/11 07:30:52;;;;;;;10.00;1.77;;;;;;;;;;5008964;28;20124;-45
2023/03/11 07:33:22;;;;;;;10.07;2.25;;;;;;;;;;4990348;28;20120;-46
2023/03/11 07:35:50;;;;;;;6.18;1.70;;;;;;;;;;5002999;28;20049;-45
2023/03/11 07:38:19;;;;;;;7.18;1.83;;;;;;;;;;4984168;28;20037;-49
2023/03/11 07:40:57;;;;;;;8.20;1.73;;;;;;;;;;4994617;28;20069;-45
2023/03/11 07:43:24;;;;;;;9.20;1.63;;;;;;;;;;5007804;28;20574;-46
2023/03/11 07:45:53;;;;;;;7.70;1.83;;;;;;;;;;5002819;28;20224;-46
2023/03/11 07:48:22;;;;;;;6.75;1.50;;;;;;;;;;4977117;28;20037;-48
2023/03/11 07:50:50;;;;;;;10.18;1.50;;;;;;;;;;4983850;28;20120;-45
2023/03/11 07:53:18;;;;;;;7.18;1.63;;;;;;;;;;4996302;28;20250;-49
2023/03/11 07:55:48;;;;;;;8.83;1.27;;;;;;;;;;4981660;28;20072;-46
2023/03/11 07:58:16;;;;;;;9.52;1.80;;;;;;;;;;4993973;28;20055;-45
2023/03/11 08:00:45;;;;;;;8.38;1.60;;;;;;;;;;4996494;28;20590;-45
2023/03/11 08:03:14;;;;;;;5.78;1.30;;;;;;;;;;4993051;28;20128;-44
2023/03/11 08:05:43;;;;;;;6.97;1.70;;;;;;;;;;4992090;28;20095;-46
2023/03/11 08:08:10;;;;;;;7.57;1.40;;;;;;;;;;4992841;28;20100;-47
2023/03/11 08:10:38;;;;;;;7.13;1.90;;;;;;;;;;4984727;28;20132;-46
2023/03/11 08:13:06;;;;;;;6.93;1.25;;;;;;;;;;4998915;28;20127;-45
2023/03/11 08:15:34;;;;;;;9.88;1.40;;;;;;;;;;4978348;28;20037;-46
2023/03/11 08:18:02;;;;;;;7.07;1.30;;;;;;;;;;5000953;28;20037;-45
2023/03/11 08:20:30;;;;;;;8.40;1.40;;;;;;;;;;4983730;28;20072;-47
2023/03/11 08:22:59;;;;;;;9.05;1.50;;;;;;;;;;4999728;28;20547;-45
2023/03/11 08:25:26;;;;;;;9.48;1.58;;;;;;;;;;4992368;28;20029;-46
2023/03/11 08:27:58;;;;;;;8.63;1.52;;;;;;;;;;4996543;28;20053;-46
2023/03/11 08:30:25;;;;;;;9.75;1.45;;;;;;;;;;5011070;28;20042;-45
2023/03/11 08:32:53;;;;;;;8.80;1.50;;;;;;;;;;4982409;28;20096;-44
2023/03/11 08:35:21;;;;;;;6.38;1.10;;;;;;;;;;5006022;28;20045;-45
2023/03/11 08:37:49;;;;;;;6.30;1.40;;;;;;;;;;4984348;28;20049;-44
2023/03/11 08:40:18;;;;;;;8.43;1.63;;;;;;;;;;5002726;28;20054;-45
2023/03/11 08:42:45;;;;;;;6.38;1.35;;;;;;;;;;4970214;28;20247;-45
2023/03/11 08:45:13;;;;;;;11.77;1.40;;;;;;;;;;5009838;28;20187;-46
2023/03/11 08:47:40;;;;;;;7.35;1.42;;;;;;;;;;4969114;28;20041;-44
2023/03/11 08:50:11;;;;;;;9.63;1.67;;;;;;;;;;5002983;28;20037;-45
2023/03/11 08:52:39;;;;;;;7.50;1.30;;;;;;;;;;4983756;28;20076;-46
2023/03/11 08:55:10;;;;;;;8.32;1.20;;;;;;;;;;4997036;28;20041;-45
2023/03/11 08:57:39;;;;;;;11.37;1.53;;;;;;;;;;4987206;28;20041;-44
2023/03/11 09:00:09;;;;;;;10.25;1.45;;;;;;;;;;4993170;28;20042;-44
2023/03/11 09:02:40;;;;;;;7.88;1.40;;;;;;;;;;4986394;28;20041;-46
2023/03/11 09:05:25;;;;;;;9.70;1.23;;;;;;;;;;4982064;28;20057;-45
2023/03/11 09:07:53;;;;;;;10.35;1.20;;;;;;;;;;4979139;28;20049;-44
2023/03/11 09:10:20;;;;;;;4.47;1.00;;;;;;;;;;4991916;28;20061;-46
2023/03/11 09:12:49;;;;;;;6.47;0.95;;;;;;;;;;4992683;28;20642;-44
2023/03/11 09:15:25;;;;;;;8.88;1.00;;;;;;;;;;4990047;28;20097;-46
2023/03/11 09:17:53;;;;;;;12.50;1.38;;;;;;;;;;4995063;28;20038;-45
2023/03/11 09:20:20;;;;;;;6.45;1.30;;;;;;;;;;4994591;28;20056;-45
2023/03/11 09:22:48;;;;;;;6.17;1.03;;;;;;;;;;4990596;28;20053;-46
2023/03/11 09:25:16;;;;;;;7.53;1.58;;;;;;;;;;4989625;28;20045;-45
2023/03/11 09:27:44;;;;;;;7.28;1.70;;;;;;;;;;5000171;28;20069;-47
2023/03/11 09:30:13;;;;;;;8.73;1.65;;;;;;;;;;4982691;28;20120;-44
2023/03/11 09:32:41;;;;;;;9.32;1.75;;;;;;;;;;5006577;28;20111;-45
2023/03/11 09:35:09;;;;;;;6.03;1.40;;;;;;;;;;4974138;28;20041;-45
2023/03/11 09:37:42;;;;;;;8.00;2.08;;;;;;;;;;4998699;28;20091;-45
2023/03/11 09:40:12;;;;;;;9.88;1.80;;;;;;;;;;4988094;28;20107;-46
2023/03/11 09:42:45;;;;;;;6.30;2.03;;;;;;;;;;4984955;28;20069;-45
2023/03/11 09:45:16;;;;;;;13.52;1.92;;;;;;;;;;5002163;28;20102;-45
2023/03/11 09:47:51;;;;;;;7.97;2.10;;;;;;;;;;4989059;28;20133;-45
2023/03/11 09:50:23;;;;;;;8.85;1.73;;;;;;;;;;4998085;28;20050;-46
2023/03/11 09:52:55;;;;;;;8.57;1.95;;;;;;;;;;4978396;28;20787;-45
2023/03/11 09:55:36;;;;;;;8.98;2.05;;;;;;;;;;4990519;28;20507;-46
2023/03/11 09:58:08;;;;;;;7.03;2.08;;;;;;;;;;4977761;28;20139;-47
2023/03/11 10:00:38;;;;;;;13.60;2.70;;;;;;;;;;4977131;28;20331;-48
2023/03/11 10:03:07;;;;;;;7.03;1.38;;;;;;;;;;4979370;28;20041;-47
2023/03/11 10:05:36;;;;;;;6.85;1.38;;;;;;;;;;4959732;28;20105;-47
2023/03/11 10:08:09;;;;;;;7.13;1.83;;;;;;;;;;4975437;28;20681;-45
2023/03/11 10:10:42;;;;;;;8.32;2.30;;;;;;;;;;4968102;28;20133;-45
2023/03/11 10:13:13;;;;;;;6.47;1.90;;;;;;;;;;4984587;28;20073;-44
2023/03/11 10:15:47;;;;;;;9.07;2.33;;;;;;;;;;4973909;28;20117;-46
2023/03/11 10:18:20;;;;;;;10.15;1.88;;;;;;;;;;4977696;28;20061;-45
2023/03/11 10:20:51;;;;;;;9.23;1.83;;;;;;;;;;4972767;28;20117;-47
2023/03/11 10:23:24;;;;;;;8.15;1.90;;;;;;;;;;4973271;28;20042;-47
2023/03/11 10:25:56;;;;;;;7.87;1.90;;;;;;;;;;4990326;28;20121;-45
2023/03/11 10:28:27;;;;;;;7.20;1.75;;;;;;;;;;4986344;28;20034;-45
2023/03/11 10:30:58;;;;;;;10.60;2.08;;;;;;;;;;4987228;28;20298;-45
2023/03/11 10:33:30;;;;;;;12.18;2.40;;;;;;;;;;4963884;28;20042;-46
2023/03/11 10:36:00;;;;;;;5.93;1.40;;;;;;;;;;4982004;28;20060;-44
2023/03/11 10:38:31;;;;;;;8.73;1.97;;;;;;;;;;4974106;28;20132;-45
2023/03/11 10:41:03;;;;;;;9.57;2.00;;;;;;;;;;4968290;28;20119;-46
2023/03/11 10:43:34;;;;;;;8.40;2.22;;;;;;;;;;4975475;28;20499;-44
2023/03/11 10:46:05;;;;;;;8.35;2.28;;;;;;;;;;4982172;28;20516;-45
2023/03/11 10:48:34;;;;;;;6.82;1.70;;;;;;;;;;4989320;28;20121;-44
2023/03/11 10:51:02;;;;;;;6.70;1.40;;;;;;;;;;4966272;28;20042;-45
2023/03/11 10:53:30;;;;;;;7.68;1.15;;;;;;;;;;4990787;28;20086;-46
2023/03/11 10:55:59;;;;;;;10.30;1.45;;;;;;;;;;4967450;28;20703;-46
2023/03/11 10:58:28;;;;;;;6.93;1.67;;;;;;;;;;4979648;28;20062;-44
2023/03/11 11:01:04;;;;;;;7.15;1.23;;;;;;;;;;4966835;28;20315;-46
2023/03/11 11:03:32;;;;;;;8.80;1.43;;;;;;;;;;4970414;28;20049;-46
2023/03/11 11:06:01;;;;;;;11.38;2.17;;;;;;;;;;4976454;28;20145;-45
2023/03/11 11:08:29;;;;;;;6.50;1.42;;;;;;;;;;4986290;28;20038;-45
2023/03/11 11:10:57;;;;;;;6.38;1.15;;;;;;;;;;4979964;28;20310;-45
2023/03/11 11:13:25;;;;;;;5.97;1.10;;;;;;;;;;4989149;28;20538;-47
2023/03/11 11:15:57;;;;;;;7.20;1.00;;;;;;;;;;4614293;28;10000474;-45
2023/03/11 11:18:28;;;;;;;10.93;1.13;;;;;;;;;;4970955;28;20097;-46
2023/03/11 11:21:00;;;;;;;8.10;1.05;;;;;;;;;;4971095;28;20515;-45
2023/03/11 11:23:32;;;;;;;8.48;1.05;;;;;;;;;;4972309;28;20056;-45
2023/03/11 11:26:03;;;;;;;6.45;1.00;;;;;;;;;;4978477;28;20049;-46
2023/03/11 11:28:32;;;;;;;6.40;0.90;;;;;;;;;;4962951;28;20826;-44
2023/03/11 11:31:00;;;;;;;9.05;1.17;;;;;;;;;;4980158;28;20133;-45
2023/03/11 11:33:30;;;;;;;9.05;1.00;;;;;;;;;;4971185;28;20439;-44
2023/03/11 11:35:59;;;;;;;6.60;1.15;;;;;;;;;;4976811;28;20389;-46
2023/03/11 11:38:28;;;;;;;8.80;1.10;;;;;;;;;;4970841;28;20131;-46
2023/03/11 11:40:57;;;;;;;8.20;1.53;;;;;;;;;;4969989;28;20100;-45
2023/03/11 11:43:31;;;;;;;5.82;1.05;;;;;;;;;;4971930;28;20065;-44
2023/03/11 11:46:02;;;;;;;4.25;1.08;;;;;;;;;;4633511;28;10000121;-48
2023/03/11 11:48:34;;;;;;;8.27;1.17;;;;;;;;;;4965639;28;20726;-45
2023/03/11 11:51:03;;;;;;;6.82;0.85;;;;;;;;;;4989652;28;20045;-49
2023/03/11 11:53:34;;;;;;;10.68;1.38;;;;;;;;;;4991635;28;20076;-46
2023/03/11 11:56:02;;;;;;;11.10;1.17;;;;;;;;;;4993404;28;20972;-48
2023/03/11 11:58:30;;;;;;;10.23;1.40;;;;;;;;;;4998142;28;20503;-47
2023/03/11 12:01:19;;;;;;;10.20;0.97;;;;;;;;;;4986635;28;20044;-45
2023/03/11 12:04:05;;;;;;;8.20;1.30;;;;;;;;;;4997172;28;20096;-45
2023/03/11 12:06:39;;;;;;;6.65;1.15;;;;;;;;;;4970402;28;20148;-46
2023/03/11 12:09:14;;;;;;;5.90;1.10;;;;;;;;;;4973399;28;20454;-45
2023/03/11 12:11:44;;;;;;;8.63;1.20;;;;;;;;;;5001263;28;20117;-45
2023/03/11 12:14:16;;;;;;;6.17;1.13;;;;;;;;;;4990881;28;20233;-47
2023/03/11 12:16:50;;;;;;;7.43;0.93;;;;;;;;;;4996368;28;20073;-46
2023/03/11 12:19:35;;;;;;;7.72;1.08;;;;;;;;;;4997763;28;20554;-45
2023/03/11 12:22:19;;;;;;;4.28;0.65;;;;;;;;;;4991780;28;20914;-45
2023/03/11 12:24:56;;;;;;;5.75;0.60;;;;;;;;;;4995548;28;20535;-45
2023/03/11 12:27:26;;;;;;;8.57;0.97;;;;;;;;;;4986512;28;20128;-45
2023/03/11 12:29:55;;;;;;;7.53;0.93;;;;;;;;;;4986492;28;22455;-46
2023/03/11 12:32:24;;;;;;;5.30;0.82;;;;;;;;;;5006432;28;20155;-44
2023/03/11 12:34:52;;;;;;;9.05;0.90;;;;;;;;;;4985811;28;20499;-45
2023/03/11 12:37:23;;;;;;;6.70;0.60;;;;;;;;;;4999002;28;20475;-46
2023/03/11 12:39:50;;;;;;;6.27;0.67;;;;;;;;;;4987959;28;20037;-45
2023/03/11 12:42:20;;;;;;;4.22;0.73;;;;;;;;;;4988605;28;20061;-46
2023/03/11 12:44:49;;;;;;;6.00;0.90;;;;;;;;;;4984302;28;20034;-45
2023/03/11 12:47:24;;;;;;;7.68;0.60;;;;;;;;;;4996352;28;20102;-46
2023/03/11 12:49:53;;;;;;;5.78;0.80;;;;;;;;;;4997676;28;20045;-45
2023/03/11 12:52:25;;;;;;;4.37;0.70;;;;;;;;;;4975785;28;20778;-46
2023/03/11 12:55:11;;;;;;;3.63;0.50;;;;;;;;;;4995754;28;20040;-47
2023/03/11 12:57:48;;;;;;;5.10;0.70;;;;;;;;;;4976191;28;20919;-46
2023/03/11 13:00:21;;;;;;;6.80;0.77;;;;;;;;;;5000313;28;20073;-47
2023/03/11 13:03:15;;;;;;;5.82;1.10;;;;;;;;;;4985475;28;20140;-44
2023/03/11 13:05:50;;;;;;;7.20;0.80;;;;;;;;;;4982253;28;20985;-46
2023/03/11 13:08:21;;;;;;;4.15;0.70;;;;;;;;;;4990580;28;20125;-46
2023/03/11 13:10:49;;;;;;;7.88;0.82;;;;;;;;;;4980018;28;20041;-45
2023/03/11 13:13:33;;;;;;;7.35;0.80;;;;;;;;;;4991892;28;20049;-45
2023/03/11 13:16:17;;;;;;;4.60;0.68;;;;;;;;;;5000964;28;20614;-46
2023/03/11 13:18:45;;;;;;;6.23;0.80;;;;;;;;;;4983631;28;20038;-46
2023/03/11 13:21:28;;;;;;;4.57;0.60;;;;;;;;;;4996945;28;20044;-44
2023/03/11 13:24:14;;;;;;;6.65;0.60;;;;;;;;;;4994023;28;20494;-46
2023/03/11 13:26:43;;;;;;;3.92;0.50;;;;;;;;;;4991597;28;20567;-47
2023/03/11 13:29:21;;;;;;;4.38;0.52;;;;;;;;;;4983192;28;20041;-46
2023/03/11 13:31:54;;;;;;;4.30;0.50;;;;;;;;;;4991694;28;20048;-45
2023/03/11 13:34:26;;;;;;;5.13;0.50;;;;;;;;;;4988218;28;20565;-46
2023/03/11 13:37:00;;;;;;;6.35;0.60;;;;;;;;;;4990522;28;20073;-45
2023/03/11 13:39:31;;;;;;;6.57;1.00;;;;;;;;;;4980495;28;20100;-47
2023/03/11 13:42:03;;;;;;;8.68;1.08;;;;;;;;;;5000035;28;20080;-45
2023/03/11 13:44:33;;;;;;;7.00;1.03;;;;;;;;;;5006569;28;20129;-50
2023/03/11 13:47:11;;;;;;;6.78;1.23;;;;;;;;;;4641743;28;10000599;-45
2023/03/11 13:49:41;;;;;;;7.30;1.13;;;;;;;;;;4998640;28;20096;-47
2023/03/11 13:52:13;;;;;;;5.15;0.70;;;;;;;;;;4987467;28;20037;-47
2023/03/11 13:54:46;;;;;;;6.37;0.60;;;;;;;;;;4989788;28;20499;-45
2023/03/11 13:57:24;;;;;;;4.82;0.60;;;;;;;;;;4988071;28;20033;-46
2023/03/11 13:59:52;;;;;;;4.20;0.60;;;;;;;;;;4996147;28;20052;-46
2023/03/11 14:02:22;;;;;;;4.68;0.63;;;;;;;;;;4980015;28;20148;-47
2023/03/11 14:04:51;;;;;;;4.22;0.82;;;;;;;;;;5004767;28;20041;-45
2023/03/11 14:07:24;;;;;;;6.53;0.60;;;;;;;;;;4989735;28;21154;-46
2023/03/11 14:09:52;;;;;;;5.55;0.73;;;;;;;;;;5006581;28;20050;-46
2023/03/11 14:12:20;;;;;;;6.10;0.98;;;;;;;;;;4987406;28;20032;-45
2023/03/11 14:14:51;;;;;;;5.22;0.73;;;;;;;;;;5003626;28;20041;-45
2023/03/11 14:17:19;;;;;;;4.55;0.63;;;;;;;;;;4995165;28;20488;-45
2023/03/11 14:20:05;;;;;;;5.27;0.67;;;;;;;;;;5005849;28;20126;-47
2023/03/11 14:22:34;;;;;;;4.63;0.60;;;;;;;;;;4997540;28;20045;-47
2023/03/11 14:25:04;;;;;;;5.70;0.70;;;;;;;;;;4997205;28;20068;-45
2023/03/11 14:27:33;;;;;;;9.48;0.65;;;;;;;;;;4989391;28;20818;-47
2023/03/11 14:30:01;;;;;;;6.13;0.60;;;;;;;;;;4985654;28;20117;-48
2023/03/11 14:32:31;;;;;;;6.80;0.97;;;;;;;;;;5000621;28;20120;-49
2023/03/11 14:34:58;;;;;;;3.88;0.80;;;;;;;;;;4994491;28;20493;-45
2023/03/11 14:37:30;;;;;;;5.07;1.15;;;;;;;;;;5012310;28;20041;-46
2023/03/11 14:39:58;;;;;;;3.47;0.73;;;;;;;;;;4627212;28;10000190;-46
2023/03/11 14:42:33;;;;;;;3.83;0.60;;;;;;;;;;4994139;28;20132;-45
2023/03/11 14:45:06;;;;;;;5.15;0.52;;;;;;;;;;4948264;28;22180;-45
2023/03/11 14:47:37;;;;;;;4.50;0.70;;;;;;;;;;4982701;28;20051;-46
2023/03/11 14:50:07;;;;;;;4.20;0.80;;;;;;;;;;4988078;28;20065;-45
2023/03/11 14:52:37;;;;;;;7.95;1.60;;;;;;;;;;4986894;28;20082;-45